VYYY Airport Information

Runway Information
Runway 03 Length 11200 ft width 200 ft
Elevation 109 ft Threshold ft Heading 33
Runway 21 Length 11200 ft Width 200 ft
Elevation 65 ft Threshold 275 ft Heading 213
Airport Frequencies
Type APP Name MINGALADON Frequency 119.7 MHZ
Type ATIS Name ATIS Frequency 128.4 MHZ
Type GND Name MINGALADON Frequency 121.9 MHZ
Type TWR Name MINGALADON Frequency 118.1 MHZ
Airport Navaids
Type NDB Name Mingaladon Frequency 397 KHZ
Type NDB Name Yangon Frequency 265 KHZ
Airport Weather Information & NOTAM
ADDS - METARS form results

(0859 UTC 09 February 2023)
Data provider http://aviationweather.gov/metar/data/
 
METAR text: VYYY 090830Z 21004KT 7000 NSC 33/19 Q1008 NOSIG
Conditions at: VYYY (YANGON INTL MYAN, MM) observed 0830 UTC 09 February 2023
Temperature: 33.0°C (91°F)
Dewpoint: 19.0°C (66°F) [RH = 44%]
Pressure (altimeter): 29.76 inches Hg (1008.0 mb)
Winds: from the SSW (210 degrees) at 5 MPH (4 knots; 2.1 m/s)
Visibility: 4 miles ( 7 km)
Ceiling: at least 12,000 feet AGL
Clouds: sky clear below 12,000 feet AGL
Weather: no significant weather observed at this time

METAR text: VYYY 090800Z 21003KT 7000 NSC 31/19 Q1008 NOSIG
Conditions at: VYYY (YANGON INTL MYAN, MM) observed 0800 UTC 09 February 2023
Temperature: 31.0°C (88°F)
Dewpoint: 19.0°C (66°F) [RH = 49%]
Pressure (altimeter): 29.76 inches Hg (1008.0 mb)
Winds: from the SSW (210 degrees) at 3 MPH (3 knots; 1.5 m/s)
Visibility: 4 miles ( 7 km)
Ceiling: at least 12,000 feet AGL
Clouds: sky clear below 12,000 feet AGL
Weather: no significant weather observed at this time

Forecast for: VYYY (YANGON INTL MYAN, MM)
Text: TAF VYYY 090500Z 0906/1006 06005KT 8000 NSC
Forecast period: 0600 UTC 09 February 2023 to 0600 UTC 10 February 2023
Forecast type: FROM: standard forecast or significant change
Winds: from the ENE (60 degrees) at 6 MPH (5 knots; 2.6 m/s)
Visibility: 5 miles (8 km)
Ceiling: unknown
Clouds: missing
Weather: no significant weather forecast for this period
Text: TEMPO 0906/0912 06008KT 7000 SCT025
Forecast period: 0600 to 1200 UTC 09 February 2023
Forecast type: TEMPORARY: The following changes expected for less than half the time period
Winds: from the ENE (60 degrees) at 9 MPH (8 knots; 4.1 m/s)
Visibility: 4 miles (7 km)
Ceiling: at least 12,000 feet AGL
Clouds: scattered clouds at 2500 feet AGL
Weather: no significant weather forecast for this period